createdAt,value
2018-05-07T00:02:24.984Z,99.90
2018-05-07T00:04:51.064Z,99.90
2018-05-07T00:07:17.165Z,99.90
2018-05-07T00:09:43.373Z,99.90
2018-05-07T00:12:09.463Z,99.90
2018-05-07T00:14:36.272Z,99.90
2018-05-07T00:17:02.369Z,99.90
2018-05-07T00:19:28.440Z,99.90
2018-05-07T00:21:54.533Z,99.90
2018-05-07T00:24:21.360Z,99.90
2018-05-07T00:26:47.447Z,99.90
2018-05-07T00:29:13.577Z,99.90
2018-05-07T00:31:39.671Z,99.90
2018-05-07T00:34:05.755Z,99.90
2018-05-07T00:36:31.856Z,99.90
2018-05-07T00:38:57.935Z,99.90
2018-05-07T00:41:24.017Z,99.90
2018-05-07T00:43:50.104Z,99.90
2018-05-07T00:46:16.184Z,99.90
2018-05-07T00:48:42.274Z,99.90
2018-05-07T00:51:09.093Z,99.90
2018-05-07T00:53:35.167Z,99.90
2018-05-07T00:56:01.240Z,99.90
2018-05-07T00:58:27.329Z,99.90
2018-05-07T01:00:54.145Z,99.90
2018-05-07T01:03:20.245Z,99.90
2018-05-07T01:05:46.314Z,99.90
2018-05-07T01:08:12.396Z,99.90
2018-05-07T01:10:39.204Z,99.90
2018-05-07T01:13:06.035Z,99.90
2018-05-07T01:15:32.100Z,99.90
2018-05-07T01:17:58.201Z,99.90
2018-05-07T01:20:24.343Z,99.90
2018-05-07T01:22:50.407Z,99.90
2018-05-07T01:25:16.493Z,99.90
2018-05-07T01:27:43.301Z,99.90
2018-05-07T01:30:09.409Z,99.90
2018-05-07T01:32:35.484Z,99.90
2018-05-07T01:35:01.593Z,99.90
2018-05-07T01:37:27.660Z,99.90
2018-05-07T01:39:54.524Z,99.90
2018-05-07T01:42:20.601Z,99.90
2018-05-07T01:44:47.444Z,99.90
2018-05-07T01:47:13.489Z,99.90
2018-05-07T01:49:40.313Z,99.90
2018-05-07T01:52:06.365Z,99.90
2018-05-07T01:54:32.454Z,99.90
2018-05-07T01:56:58.517Z,99.90
2018-05-07T01:59:24.608Z,99.90
2018-05-07T02:01:50.711Z,99.90
2018-05-07T02:04:16.760Z,99.90
2018-05-07T02:06:43.552Z,99.90
2018-05-07T02:09:09.632Z,99.90
2018-05-07T02:11:35.680Z,99.90
2018-05-07T02:14:01.776Z,99.90
2018-05-07T02:16:27.820Z,99.90
2018-05-07T02:18:53.900Z,99.90
2018-05-07T02:21:19.945Z,99.90
2018-05-07T02:23:46.757Z,99.90
2018-05-07T02:26:12.796Z,99.90
2018-05-07T02:28:38.860Z,99.90
2018-05-07T02:31:04.931Z,99.90
2018-05-07T02:33:31.040Z,99.90
2018-05-07T02:35:57.886Z,99.90
2018-05-07T02:38:23.949Z,99.90
2018-05-07T02:40:50.741Z,99.90
2018-05-07T02:43:16.835Z,99.90
2018-05-07T02:45:42.908Z,99.90
2018-05-07T02:48:08.961Z,99.90
2018-05-07T02:50:35.061Z,99.90
2018-05-07T02:53:01.144Z,99.90
2018-05-07T02:55:27.205Z,99.90
2018-05-07T02:57:53.304Z,99.90
2018-05-07T03:00:19.365Z,99.90
2018-05-07T03:02:45.421Z,99.90
2018-05-07T03:05:12.255Z,99.90
2018-05-07T03:07:38.317Z,99.90
2018-05-07T03:10:05.174Z,99.90
2018-05-07T03:12:31.976Z,99.90
2018-05-07T03:14:58.033Z,99.90
2018-05-07T03:17:24.088Z,99.90
2018-05-07T03:19:50.177Z,99.90
2018-05-07T03:22:16.219Z,99.90
2018-05-07T03:24:42.310Z,99.90
2018-05-07T03:27:08.372Z,99.90
2018-05-07T03:29:34.420Z,99.90
2018-05-07T03:32:00.557Z,99.90
2018-05-07T03:34:26.637Z,99.90
2018-05-07T03:36:52.718Z,99.90
2018-05-07T03:39:18.814Z,99.90
2018-05-07T03:41:44.888Z,99.90
2018-05-07T03:44:11.698Z,99.90
2018-05-07T03:46:37.793Z,99.90
2018-05-07T03:49:03.892Z,99.90
2018-05-07T03:51:29.942Z,99.90
2018-05-07T03:53:55.988Z,99.90
2018-05-07T03:56:22.801Z,99.90
2018-05-07T03:58:48.938Z,99.90
2018-05-07T04:01:15.049Z,99.90
2018-05-07T04:03:41.101Z,99.90
2018-05-07T04:06:07.984Z,99.90
2018-05-07T04:08:34.081Z,99.90
2018-05-07T04:11:00.125Z,99.90
2018-05-07T04:13:26.205Z,99.90
2018-05-07T04:15:52.264Z,99.90
2018-05-07T04:18:31.580Z,99.90
2018-05-07T04:21:10.068Z,99.90
2018-05-07T04:23:48.515Z,99.90
2018-05-07T04:26:14.598Z,99.90
2018-05-07T04:28:40.685Z,99.90
2018-05-07T04:31:06.800Z,99.90
2018-05-07T04:33:33.608Z,99.90
2018-05-07T04:35:59.676Z,99.90
2018-05-07T04:38:26.496Z,99.90
2018-05-07T04:40:52.560Z,99.90
2018-05-07T04:43:19.388Z,99.90
2018-05-07T04:45:45.442Z,99.90
2018-05-07T04:48:11.507Z,99.90
2018-05-07T04:50:37.624Z,99.90
2018-05-07T04:53:04.427Z,99.90
2018-05-07T04:55:30.478Z,99.90
2018-05-07T04:57:56.555Z,99.90
2018-05-07T05:00:22.629Z,99.90
2018-05-07T05:02:48.677Z,99.90
2018-05-07T05:05:14.760Z,99.90
2018-05-07T05:07:40.804Z,99.90
2018-05-07T05:10:07.601Z,99.90
2018-05-07T05:12:33.676Z,99.90
2018-05-07T05:14:59.744Z,99.90
2018-05-07T05:17:26.609Z,99.90
2018-05-07T05:19:53.399Z,99.90
2018-05-07T05:22:19.497Z,99.90
2018-05-07T05:24:46.296Z,99.90
2018-05-07T05:27:12.340Z,99.90
2018-05-07T05:29:38.416Z,99.90
2018-05-07T05:32:04.463Z,99.90
2018-05-07T05:34:31.257Z,99.90
2018-05-07T05:36:57.343Z,99.90
2018-05-07T05:39:23.388Z,99.90
2018-05-07T05:41:50.185Z,99.90
2018-05-07T05:44:16.268Z,99.90
2018-05-07T05:46:42.325Z,99.90
2018-05-07T05:49:08.478Z,99.90
2018-05-07T05:51:34.532Z,99.90
2018-05-07T05:54:00.620Z,99.90
2018-05-07T05:56:26.875Z,99.90
2018-05-07T05:58:52.835Z,99.90
2018-05-07T06:01:18.911Z,99.90
2018-05-07T06:03:44.979Z,99.90
2018-05-07T06:06:11.048Z,99.90
2018-05-07T06:08:37.093Z,99.90
2018-05-07T06:11:03.929Z,99.90
2018-05-07T06:13:30.010Z,99.90
2018-05-07T06:15:56.064Z,99.90
2018-05-07T06:18:22.144Z,99.90
2018-05-07T06:20:48.237Z,99.90
2018-05-07T06:23:14.300Z,99.90
2018-05-07T06:25:40.349Z,99.90
2018-05-07T06:28:06.437Z,99.90
2018-05-07T06:30:32.497Z,99.90
2018-05-07T06:32:59.393Z,99.90
2018-05-07T06:35:25.445Z,99.90
2018-05-07T06:37:51.537Z,99.90
2018-05-07T06:40:18.328Z,99.90
2018-05-07T06:42:44.405Z,99.90
2018-05-07T06:45:10.465Z,99.90
2018-05-07T06:47:37.280Z,99.90
2018-05-07T06:50:03.372Z,99.90
2018-05-07T06:52:29.433Z,99.90
2018-05-07T06:54:55.490Z,99.90
2018-05-07T06:57:21.596Z,99.90
2018-05-07T06:59:47.652Z,99.90
2018-05-07T07:02:13.777Z,99.90
2018-05-07T07:04:39.772Z,99.90
2018-05-07T07:07:05.852Z,99.90
2018-05-07T07:09:31.917Z,99.90
2018-05-07T07:11:57.993Z,99.90
2018-05-07T07:14:24.048Z,99.90
2018-05-07T07:16:50.132Z,99.90
2018-05-07T07:19:16.186Z,99.90
2018-05-07T07:21:42.309Z,99.90
2018-05-07T07:24:08.341Z,99.90
2018-05-07T07:26:34.396Z,99.90
2018-05-07T07:29:00.453Z,99.90
2018-05-07T07:31:27.237Z,99.90
2018-05-07T07:33:53.476Z,99.90
2018-05-07T07:36:19.444Z,99.90
2018-05-07T07:38:45.524Z,99.90
2018-05-07T07:41:11.560Z,99.90
2018-05-07T07:43:38.391Z,99.90
2018-05-07T07:46:04.431Z,99.90
2018-05-07T07:48:30.493Z,99.90
2018-05-07T07:50:56.576Z,99.90
2018-05-07T07:53:22.705Z,99.90
2018-05-07T07:55:48.712Z,99.90
2018-05-07T07:58:15.531Z,99.90
2018-05-07T08:00:41.612Z,99.90
2018-05-07T08:03:08.401Z,99.90
2018-05-07T08:05:34.485Z,99.90
2018-05-07T08:08:01.282Z,99.90
2018-05-07T08:10:27.386Z,99.90
2018-05-07T08:12:54.238Z,99.90
2018-05-07T08:15:20.328Z,99.90
2018-05-07T08:17:46.445Z,99.90
2018-05-07T08:20:12.517Z,99.90
2018-05-07T08:22:38.559Z,99.90
2018-05-07T08:25:04.655Z,99.90
2018-05-07T08:27:30.736Z,99.90
2018-05-07T08:29:56.937Z,99.90
2018-05-07T08:32:23.007Z,99.90
2018-05-07T08:34:49.105Z,99.90
2018-05-07T08:37:15.198Z,99.90
2018-05-07T08:39:41.261Z,99.90
2018-05-07T08:42:08.081Z,99.90
2018-05-07T08:44:34.148Z,99.90
2018-05-07T08:47:00.227Z,99.90
2018-05-07T08:49:26.286Z,99.90
2018-05-07T08:51:52.332Z,99.90
2018-05-07T08:54:18.397Z,99.90
2018-05-07T08:56:45.234Z,99.90
2018-05-07T08:59:11.280Z,99.90
2018-05-07T09:01:38.087Z,99.90
2018-05-07T09:04:04.177Z,99.90
2018-05-07T09:06:30.965Z,99.90
2018-05-07T09:08:57.021Z,99.90
2018-05-07T09:11:23.100Z,99.90
2018-05-07T09:13:49.992Z,99.90
2018-05-07T09:16:16.060Z,99.90
2018-05-07T09:18:42.121Z,99.90
2018-05-07T09:21:08.209Z,99.90
2018-05-07T09:23:34.253Z,99.90
2018-05-07T09:26:00.360Z,99.90
2018-05-07T09:28:27.145Z,99.90
2018-05-07T09:30:53.193Z,99.90
2018-05-07T09:33:19.272Z,99.90
2018-05-07T09:35:45.361Z,99.90
2018-05-07T09:38:11.412Z,99.90
2018-05-07T09:40:37.513Z,99.90
2018-05-07T09:43:03.686Z,99.90
2018-05-07T09:45:29.649Z,99.90
2018-05-07T09:47:55.728Z,99.90
2018-05-07T09:50:21.817Z,99.90
2018-05-07T09:52:47.876Z,99.90
2018-05-07T09:55:13.948Z,99.90
2018-05-07T09:57:52.369Z,99.90
2018-05-07T10:00:18.510Z,99.90
2018-05-07T10:02:44.557Z,99.90
2018-05-07T10:05:10.618Z,99.90
2018-05-07T10:07:36.688Z,99.90
2018-05-07T10:10:02.753Z,99.90
2018-05-07T10:12:28.807Z,99.90
2018-05-07T10:14:54.897Z,99.90
2018-05-07T10:17:20.945Z,99.90
2018-05-07T10:19:47.736Z,99.90
2018-05-07T10:22:13.870Z,99.90
2018-05-07T10:24:39.946Z,99.90
2018-05-07T10:27:06.017Z,99.90
2018-05-07T10:29:32.101Z,99.90
2018-05-07T10:31:58.192Z,99.90
2018-05-07T10:34:24.996Z,99.90
2018-05-07T10:36:51.068Z,99.90
2018-05-07T10:39:17.173Z,99.90
2018-05-07T10:41:43.259Z,99.90
2018-05-07T10:44:09.317Z,99.90
2018-05-07T10:46:35.397Z,99.90
2018-05-07T10:49:01.460Z,99.90
2018-05-07T10:51:27.537Z,99.90
2018-05-07T10:53:53.580Z,99.30
2018-05-07T10:56:19.624Z,99.90
2018-05-07T10:58:45.696Z,99.90
2018-05-07T11:01:11.736Z,99.90
2018-05-07T11:03:37.833Z,99.90
2018-05-07T11:06:03.968Z,98.80
2018-05-07T11:08:30.045Z,99.90
2018-05-07T11:10:56.133Z,99.90
2018-05-07T11:13:22.188Z,99.20
2018-05-07T11:15:48.223Z,99.90
2018-05-07T11:18:14.304Z,99.10
2018-05-07T11:20:40.345Z,99.90
2018-05-07T11:23:07.163Z,99.90
2018-05-07T11:25:33.209Z,99.90
2018-05-07T11:27:59.281Z,99.90
2018-05-07T11:30:25.372Z,99.80
2018-05-07T11:32:51.466Z,99.90
2018-05-07T11:35:18.265Z,96.10
2018-05-07T11:37:44.329Z,96.10
2018-05-07T11:40:10.384Z,96.70
2018-05-07T11:42:37.188Z,96.50
2018-05-07T11:45:03.308Z,96.50
2018-05-07T11:47:29.412Z,97.10
2018-05-07T11:49:55.456Z,96.50
2018-05-07T11:52:22.247Z,97.40
2018-05-07T11:54:48.309Z,97.20
2018-05-07T11:57:14.409Z,94.10
2018-05-07T11:59:40.490Z,93.40
2018-05-07T12:02:06.550Z,94.30
2018-05-07T12:04:32.658Z,94.40
2018-05-07T12:06:58.718Z,92.10
2018-05-07T12:09:24.765Z,94.60
2018-05-07T12:11:50.833Z,93.80
2018-05-07T12:14:16.868Z,94.60
2018-05-07T12:16:42.940Z,91.60
2018-05-07T12:19:08.997Z,94.10
2018-05-07T12:21:35.082Z,92.60
2018-05-07T12:24:01.137Z,92.80
2018-05-07T12:26:27.250Z,90.70
2018-05-07T12:28:53.297Z,92.10
2018-05-07T12:31:19.459Z,90.00
2018-05-07T12:33:45.424Z,90.60
2018-05-07T12:36:11.517Z,90.20
2018-05-07T12:38:37.611Z,88.60
2018-05-07T12:41:03.662Z,88.80
2018-05-07T12:43:29.744Z,87.00
2018-05-07T12:45:55.824Z,90.60
2018-05-07T12:48:22.620Z,89.40
2018-05-07T12:50:48.698Z,89.20
2018-05-07T12:53:14.782Z,87.30
2018-05-07T12:55:40.824Z,84.40
2018-05-07T12:58:06.913Z,83.80
2018-05-07T13:00:32.957Z,84.90
2018-05-07T13:02:59.041Z,82.80
2018-05-07T13:05:25.117Z,85.90
2018-05-07T13:07:51.205Z,83.10
2018-05-07T13:10:17.257Z,79.70
2018-05-07T13:12:43.328Z,84.00
2018-05-07T13:15:09.400Z,76.90
2018-05-07T13:17:35.464Z,82.10
2018-05-07T13:20:01.533Z,85.20
2018-05-07T13:22:27.625Z,74.70
2018-05-07T13:24:53.744Z,77.40
2018-05-07T13:27:19.787Z,77.00
2018-05-07T13:29:46.589Z,74.90
2018-05-07T13:32:12.633Z,74.70
2018-05-07T13:34:38.709Z,75.10
2018-05-07T13:37:05.503Z,66.80
2018-05-07T13:39:31.584Z,66.90
2018-05-07T13:41:57.674Z,67.20
2018-05-07T13:44:23.741Z,61.70
2018-05-07T13:46:49.809Z,60.40
2018-05-07T13:49:15.852Z,58.90
2018-05-07T13:51:42.690Z,55.80
2018-05-07T13:54:08.747Z,55.30
2018-05-07T13:56:35.544Z,54.80
2018-05-07T13:59:01.632Z,54.70
2018-05-07T14:01:28.506Z,53.20
2018-05-07T14:03:54.584Z,53.10
2018-05-07T14:06:20.634Z,52.20
2018-05-07T14:08:46.713Z,54.40
2018-05-07T14:11:13.505Z,52.20
2018-05-07T14:13:39.556Z,52.20
2018-05-07T14:16:05.708Z,51.00
2018-05-07T14:18:31.780Z,50.90
2018-05-07T14:20:58.569Z,49.10
2018-05-07T14:23:24.613Z,49.10
2018-05-07T14:25:50.704Z,50.50
2018-05-07T14:28:17.507Z,50.10
2018-05-07T14:30:43.584Z,50.00
2018-05-07T14:33:10.397Z,48.30
2018-05-07T14:35:36.461Z,47.80
2018-05-07T14:38:02.545Z,50.00
2018-05-07T14:40:28.632Z,48.90
2018-05-07T14:42:54.733Z,50.20
2018-05-07T14:45:21.544Z,46.50
2018-05-07T14:47:48.340Z,46.60
2018-05-07T14:50:14.438Z,46.60
2018-05-07T14:52:40.588Z,48.50
2018-05-07T14:55:07.406Z,47.80
2018-05-07T14:57:33.482Z,47.60
2018-05-07T15:00:00.270Z,47.00
2018-05-07T15:02:26.389Z,47.00
2018-05-07T15:04:52.454Z,48.30
2018-05-07T15:07:18.549Z,48.30
2018-05-07T15:09:45.361Z,46.60
2018-05-07T15:12:11.437Z,46.60
2018-05-07T15:14:38.249Z,45.70
2018-05-07T15:17:04.301Z,45.60
2018-05-07T15:19:30.413Z,47.60
2018-05-07T15:21:56.496Z,47.20
2018-05-07T15:24:23.285Z,46.00
2018-05-07T15:26:49.368Z,45.90
2018-05-07T15:29:15.486Z,45.60
2018-05-07T15:31:42.280Z,45.50
2018-05-07T15:34:08.372Z,45.50
2018-05-07T15:36:34.412Z,46.50
2018-05-07T15:39:00.504Z,45.50
2018-05-07T15:41:27.292Z,44.50
2018-05-07T15:43:53.502Z,44.40
2018-05-07T15:46:19.505Z,46.30
2018-05-07T15:48:45.572Z,47.50
2018-05-07T15:51:11.794Z,44.50
2018-05-07T15:53:37.957Z,47.10
2018-05-07T15:56:04.164Z,45.70
2018-05-07T15:58:30.207Z,44.20
2018-05-07T16:00:56.292Z,44.70
2018-05-07T16:03:22.410Z,46.10
2018-05-07T16:05:48.492Z,46.20
2018-05-07T16:08:14.577Z,46.10
2018-05-07T16:10:41.429Z,44.10
2018-05-07T16:13:07.596Z,44.70
2018-05-07T16:15:34.069Z,44.50
2018-05-07T16:18:00.057Z,44.00
2018-05-07T16:20:26.937Z,44.30
2018-05-07T16:22:52.979Z,44.40
2018-05-07T16:25:19.066Z,45.00
2018-05-07T16:27:45.122Z,45.20
2018-05-07T16:30:11.916Z,45.40
2018-05-07T16:32:38.037Z,45.50
2018-05-07T16:35:04.101Z,46.20
2018-05-07T16:37:30.915Z,45.50
2018-05-07T16:39:56.968Z,45.40
2018-05-07T16:42:23.036Z,44.50
2018-05-07T16:44:49.077Z,45.00
2018-05-07T16:47:15.144Z,45.00
2018-05-07T16:49:41.201Z,43.50
2018-05-07T16:52:07.381Z,44.80
2018-05-07T16:54:33.636Z,43.50
2018-05-07T16:56:59.849Z,44.40
2018-05-07T16:59:25.989Z,45.00
2018-05-07T17:01:52.138Z,44.00
2018-05-07T17:04:18.336Z,44.70
2018-05-07T17:06:45.293Z,43.80
2018-05-07T17:09:11.201Z,43.80
2018-05-07T17:11:37.305Z,45.20
2018-05-07T17:14:03.412Z,45.10
2018-05-07T17:16:30.339Z,44.60
2018-05-07T17:18:56.498Z,44.60
2018-05-07T17:21:23.294Z,43.80
2018-05-07T17:23:49.399Z,43.70
2018-05-07T17:26:16.218Z,43.20
2018-05-07T17:28:42.273Z,43.20
2018-05-07T17:31:09.260Z,45.00
2018-05-07T17:33:35.469Z,44.40
2018-05-07T17:36:02.410Z,44.80
2018-05-07T17:38:28.477Z,44.70
2018-05-07T17:40:55.301Z,43.50
2018-05-07T17:43:21.453Z,43.50
2018-05-07T17:45:59.976Z,45.20
2018-05-07T17:48:38.285Z,44.80
2018-05-07T17:51:04.451Z,46.00
2018-05-07T17:53:30.618Z,46.10
2018-05-07T17:55:57.413Z,45.40
2018-05-07T17:58:23.490Z,45.40
2018-05-07T18:00:49.541Z,45.60
2018-05-07T18:03:16.356Z,48.10
2018-05-07T18:05:42.459Z,48.50
2018-05-07T18:08:08.556Z,49.50
2018-05-07T18:10:34.749Z,50.40
2018-05-07T18:13:00.708Z,50.70
2018-05-07T18:15:26.780Z,52.60
2018-05-07T18:17:53.620Z,52.90
2018-05-07T18:20:19.725Z,52.90
2018-05-07T18:22:45.814Z,52.90
2018-05-07T18:25:12.660Z,53.20
2018-05-07T18:27:38.718Z,53.20
2018-05-07T18:30:04.860Z,53.60
2018-05-07T18:32:31.078Z,56.10
2018-05-07T18:34:56.996Z,55.20
2018-05-07T18:37:23.088Z,58.10
2018-05-07T18:39:49.133Z,57.80
2018-05-07T18:42:15.173Z,58.60
2018-05-07T18:44:41.248Z,58.90
2018-05-07T18:47:07.416Z,59.30
2018-05-07T18:49:34.236Z,62.00
2018-05-07T18:52:00.482Z,62.00
2018-05-07T18:54:26.514Z,62.90
2018-05-07T18:56:52.681Z,64.50
2018-05-07T18:59:19.621Z,67.60
2018-05-07T19:01:45.776Z,67.60
2018-05-07T19:04:12.580Z,68.20
2018-05-07T19:06:38.664Z,68.00
2018-05-07T19:09:05.533Z,69.10
2018-05-07T19:11:31.672Z,69.00
2018-05-07T19:13:57.820Z,69.80
2018-05-07T19:16:23.917Z,70.60
2018-05-07T19:18:50.073Z,71.60
2018-05-07T19:21:16.988Z,73.60
2018-05-07T19:23:43.073Z,73.60
2018-05-07T19:26:09.917Z,74.00
2018-05-07T19:28:36.082Z,73.80
2018-05-07T19:31:02.208Z,75.60
2018-05-07T19:33:28.356Z,76.40
2018-05-07T19:35:54.493Z,77.00
2018-05-07T19:38:20.568Z,77.70
2018-05-07T19:40:47.390Z,78.40
2018-05-07T19:43:13.467Z,78.40
2018-05-07T19:45:39.537Z,79.40
2018-05-07T19:48:05.743Z,79.30
2018-05-07T19:50:31.768Z,79.80
2018-05-07T19:52:57.830Z,80.30
2018-05-07T19:55:23.949Z,79.80
2018-05-07T19:57:50.006Z,79.50
2018-05-07T20:00:16.105Z,79.50
2018-05-07T20:02:42.158Z,78.60
2018-05-07T20:05:08.309Z,76.70
2018-05-07T20:07:34.383Z,76.10
2018-05-07T20:10:01.223Z,75.30
2018-05-07T20:12:27.375Z,75.30
2018-05-07T20:14:53.446Z,75.30
2018-05-07T20:17:19.602Z,76.50
2018-05-07T20:19:45.697Z,75.70
2018-05-07T20:22:11.809Z,76.40
2018-05-07T20:24:37.853Z,77.10
2018-05-07T20:27:03.953Z,77.90
2018-05-07T20:29:30.026Z,79.60
2018-05-07T20:31:56.113Z,79.50
2018-05-07T20:34:22.200Z,80.20
2018-05-07T20:36:48.276Z,81.50
2018-05-07T20:39:15.142Z,83.10
2018-05-07T20:41:41.253Z,83.10
2018-05-07T20:44:08.129Z,86.10
2018-05-07T20:46:34.225Z,86.10
2018-05-07T20:49:00.405Z,87.40
2018-05-07T20:51:26.560Z,89.10
2018-05-07T20:53:52.909Z,90.30
2018-05-07T20:56:19.765Z,92.90
2018-05-07T20:58:45.900Z,92.90
2018-05-07T21:01:11.957Z,93.70
2018-05-07T21:03:38.041Z,95.00
2018-05-07T21:06:04.864Z,97.90
2018-05-07T21:08:31.345Z,98.00
2018-05-07T21:10:58.205Z,99.90
2018-05-07T21:13:24.260Z,99.90
2018-05-07T21:15:50.340Z,99.90
2018-05-07T21:18:16.420Z,99.90
2018-05-07T21:20:42.545Z,99.90
2018-05-07T21:23:09.477Z,99.90
2018-05-07T21:25:35.576Z,99.90
2018-05-07T21:28:01.625Z,99.90
2018-05-07T21:30:27.693Z,99.90
2018-05-07T21:32:53.761Z,99.90
2018-05-07T21:35:20.550Z,99.90
2018-05-07T21:37:46.636Z,99.90
2018-05-07T21:40:13.487Z,99.90
2018-05-07T21:42:39.577Z,99.90
2018-05-07T21:45:05.628Z,99.90
2018-05-07T21:47:31.684Z,99.90
2018-05-07T21:49:57.748Z,99.90
2018-05-07T21:52:24.766Z,99.90
2018-05-07T21:54:50.853Z,99.90
2018-05-07T21:57:16.909Z,99.90
2018-05-07T21:59:42.958Z,99.90
2018-05-07T22:02:09.040Z,99.90
2018-05-07T22:04:35.382Z,99.90
2018-05-07T22:07:01.565Z,99.90
2018-05-07T22:09:27.607Z,99.90
2018-05-07T22:11:53.689Z,99.90
2018-05-07T22:14:19.778Z,99.90
2018-05-07T22:16:46.528Z,99.90
2018-05-07T22:19:12.588Z,99.90
2018-05-07T22:21:38.631Z,99.90
2018-05-07T22:24:04.721Z,99.90
2018-05-07T22:26:30.807Z,99.90
2018-05-07T22:28:56.845Z,99.90
2018-05-07T22:31:23.057Z,99.90
2018-05-07T22:33:49.121Z,99.90
2018-05-07T22:36:15.193Z,99.90
2018-05-07T22:38:42.001Z,99.90
2018-05-07T22:41:08.378Z,99.90
2018-05-07T22:43:35.221Z,99.90
2018-05-07T22:46:01.265Z,99.90
2018-05-07T22:48:27.349Z,99.90
2018-05-07T22:50:53.393Z,99.90
2018-05-07T22:53:19.444Z,99.90
2018-05-07T22:55:45.648Z,99.90
2018-05-07T22:58:12.473Z,99.90
2018-05-07T23:00:38.561Z,99.90
2018-05-07T23:03:04.708Z,99.90
2018-05-07T23:05:30.764Z,99.90
2018-05-07T23:07:56.804Z,99.90
2018-05-07T23:10:22.877Z,99.90
2018-05-07T23:12:48.912Z,99.90
2018-05-07T23:15:15.732Z,99.90
2018-05-07T23:17:41.832Z,99.90
2018-05-07T23:20:07.883Z,99.90
2018-05-07T23:22:33.964Z,99.90
2018-05-07T23:25:00.017Z,99.90
2018-05-07T23:27:26.164Z,99.90
2018-05-07T23:29:52.997Z,99.90
2018-05-07T23:32:19.071Z,99.90
2018-05-07T23:34:45.108Z,99.90
2018-05-07T23:37:11.177Z,99.90
2018-05-07T23:39:37.225Z,99.90
2018-05-07T23:42:03.292Z,99.90
2018-05-07T23:44:29.389Z,99.90
2018-05-07T23:46:55.445Z,99.90
2018-05-07T23:49:21.492Z,99.90
2018-05-07T23:51:47.565Z,99.90
2018-05-07T23:54:13.648Z,99.90
2018-05-07T23:56:39.704Z,99.90
2018-05-07T23:59:05.786Z,99.90
